sensor_id;sensor_type;location;lat;lon;timestamp;P1;durP1;ratioP1;P2;durP2;ratioP2
58874;SDS011;44652;49.040;12.126;2023-02-14T06:10:55;47.85;;;24.05;;
58874;SDS011;44652;49.040;12.126;2023-02-14T06:13:22;41.65;;;23.65;;
58874;SDS011;44652;49.040;12.126;2023-02-14T06:15:50;40.75;;;24.55;;
58874;SDS011;44652;49.040;12.126;2023-02-14T06:18:16;39.08;;;23.38;;
58874;SDS011;44652;49.040;12.126;2023-02-14T06:20:43;41.20;;;23.02;;
58874;SDS011;44652;49.040;12.126;2023-02-14T06:23:09;39.53;;;24.33;;
58874;SDS011;44652;49.040;12.126;2023-02-14T06:25:36;41.63;;;23.95;;
58874;SDS011;44652;49.040;12.126;2023-02-14T06:28:02;35.30;;;23.30;;
58874;SDS011;44652;49.040;12.126;2023-02-14T06:30:29;38.22;;;23.23;;
58874;SDS011;44652;49.040;12.126;2023-02-14T06:32:59;36.35;;;22.23;;
58874;SDS011;44652;49.040;12.126;2023-02-14T06:35:26;36.05;;;22.38;;
58874;SDS011;44652;49.040;12.126;2023-02-14T06:37:53;35.65;;;22.33;;
58874;SDS011;44652;49.040;12.126;2023-02-14T06:40:19;36.72;;;22.52;;
58874;SDS011;44652;49.040;12.126;2023-02-14T06:42:47;39.25;;;22.45;;
58874;SDS011;44652;49.040;12.126;2023-02-14T06:45:13;35.80;;;21.85;;
58874;SDS011;44652;49.040;12.126;2023-02-14T06:47:40;39.78;;;23.02;;
58874;SDS011;44652;49.040;12.126;2023-02-14T06:50:06;39.47;;;23.17;;
58874;SDS011;44652;49.040;12.126;2023-02-14T06:52:33;39.70;;;23.88;;
58874;SDS011;44652;49.040;12.126;2023-02-14T06:55:00;37.85;;;22.75;;
58874;SDS011;44652;49.040;12.126;2023-02-14T06:57:26;36.05;;;23.35;;
58874;SDS011;44652;49.040;12.126;2023-02-14T06:59:53;39.58;;;24.23;;
58874;SDS011;44652;49.040;12.126;2023-02-14T07:02:19;37.75;;;22.67;;
58874;SDS011;44652;49.040;12.126;2023-02-14T07:04:50;40.97;;;25.17;;
58874;SDS011;44652;49.040;12.126;2023-02-14T07:07:16;45.75;;;26.15;;
58874;SDS011;44652;49.040;12.126;2023-02-14T07:09:43;43.67;;;25.13;;
58874;SDS011;44652;49.040;12.126;2023-02-14T07:12:09;51.05;;;27.88;;
58874;SDS011;44652;49.040;12.126;2023-02-14T07:14:36;49.28;;;27.15;;
58874;SDS011;44652;49.040;12.126;2023-02-14T07:17:02;45.10;;;25.83;;
58874;SDS011;44652;49.040;12.126;2023-02-14T07:19:29;46.88;;;26.05;;
58874;SDS011;44652;49.040;12.126;2023-02-14T07:21:55;46.72;;;26.05;;
58874;SDS011;44652;49.040;12.126;2023-02-14T07:24:22;49.25;;;25.48;;
58874;SDS011;44652;49.040;12.126;2023-02-14T07:26:48;46.92;;;25.17;;
58874;SDS011;44652;49.040;12.126;2023-02-14T07:29:15;49.90;;;25.35;;
58874;SDS011;44652;49.040;12.126;2023-02-14T07:31:41;49.67;;;25.83;;
58874;SDS011;44652;49.040;12.126;2023-02-14T07:34:08;46.22;;;25.17;;
58874;SDS011;44652;49.040;12.126;2023-02-14T07:36:35;44.95;;;25.70;;
58874;SDS011;44652;49.040;12.126;2023-02-14T07:39:02;43.90;;;25.07;;
58874;SDS011;44652;49.040;12.126;2023-02-14T07:41:28;42.65;;;24.40;;
58874;SDS011;44652;49.040;12.126;2023-02-14T07:43:55;49.15;;;26.35;;
58874;SDS011;44652;49.040;12.126;2023-02-14T07:46:22;51.45;;;26.52;;
58874;SDS011;44652;49.040;12.126;2023-02-14T07:48:48;46.08;;;24.58;;
58874;SDS011;44652;49.040;12.126;2023-02-14T07:51:16;48.47;;;24.85;;
58874;SDS011;44652;49.040;12.126;2023-02-14T07:53:43;43.13;;;24.13;;
58874;SDS011;44652;49.040;12.126;2023-02-14T07:56:09;51.35;;;26.90;;
58874;SDS011;44652;49.040;12.126;2023-02-14T07:58:36;47.72;;;25.13;;
58874;SDS011;44652;49.040;12.126;2023-02-14T08:01:02;47.47;;;25.30;;
58874;SDS011;44652;49.040;12.126;2023-02-14T08:03:29;49.92;;;25.67;;
58874;SDS011;44652;49.040;12.126;2023-02-14T08:05:56;49.00;;;25.15;;
58874;SDS011;44652;49.040;12.126;2023-02-14T08:08:25;49.85;;;25.10;;
58874;SDS011;44652;49.040;12.126;2023-02-14T08:10:51;47.83;;;24.60;;
58874;SDS011;44652;49.040;12.126;2023-02-14T08:13:18;56.92;;;27.75;;
58874;SDS011;44652;49.040;12.126;2023-02-14T08:15:44;53.40;;;26.05;;
58874;SDS011;44652;49.040;12.126;2023-02-14T08:18:33;49.38;;;25.25;;
58874;SDS011;44652;49.040;12.126;2023-02-14T08:21:00;48.80;;;25.10;;
58874;SDS011;44652;49.040;12.126;2023-02-14T08:23:27;48.67;;;26.45;;
58874;SDS011;44652;49.040;12.126;2023-02-14T08:25:54;52.60;;;26.10;;
58874;SDS011;44652;49.040;12.126;2023-02-14T08:28:21;49.35;;;25.00;;
58874;SDS011;44652;49.040;12.126;2023-02-14T08:30:48;47.58;;;24.27;;
58874;SDS011;44652;49.040;12.126;2023-02-14T08:33:15;51.42;;;25.95;;
58874;SDS011;44652;49.040;12.126;2023-02-14T08:35:41;48.00;;;24.45;;
58874;SDS011;44652;49.040;12.126;2023-02-14T08:38:08;53.30;;;25.83;;
58874;SDS011;44652;49.040;12.126;2023-02-14T08:40:35;45.83;;;24.42;;
58874;SDS011;44652;49.040;12.126;2023-02-14T08:43:05;55.97;;;27.23;;
58874;SDS011;44652;49.040;12.126;2023-02-14T08:45:32;38.50;;;19.30;;
58874;SDS011;44652;49.040;12.126;2023-02-14T08:47:59;40.58;;;21.13;;
58874;SDS011;44652;49.040;12.126;2023-02-14T08:50:25;48.67;;;24.08;;
58874;SDS011;44652;49.040;12.126;2023-02-14T08:52:52;43.08;;;22.60;;
58874;SDS011;44652;49.040;12.126;2023-02-14T08:55:19;50.15;;;23.92;;
58874;SDS011;44652;49.040;12.126;2023-02-14T08:57:45;49.35;;;24.02;;
58874;SDS011;44652;49.040;12.126;2023-02-14T09:00:12;36.83;;;19.38;;
58874;SDS011;44652;49.040;12.126;2023-02-14T09:02:38;42.47;;;20.67;;
58874;SDS011;44652;49.040;12.126;2023-02-14T09:05:05;44.13;;;20.85;;
58874;SDS011;44652;49.040;12.126;2023-02-14T09:07:33;33.50;;;16.63;;
58874;SDS011;44652;49.040;12.126;2023-02-14T09:10:00;37.83;;;20.25;;
58874;SDS011;44652;49.040;12.126;2023-02-14T09:12:26;41.10;;;20.13;;
58874;SDS011;44652;49.040;12.126;2023-02-14T09:14:53;32.83;;;15.55;;
58874;SDS011;44652;49.040;12.126;2023-02-14T09:17:19;31.45;;;15.50;;
58874;SDS011;44652;49.040;12.126;2023-02-14T09:19:46;33.90;;;16.05;;
58874;SDS011;44652;49.040;12.126;2023-02-14T09:22:12;35.08;;;16.98;;
58874;SDS011;44652;49.040;12.126;2023-02-14T09:24:39;33.70;;;16.70;;
58874;SDS011;44652;49.040;12.126;2023-02-14T09:27:06;30.50;;;15.50;;
58874;SDS011;44652;49.040;12.126;2023-02-14T09:29:33;30.25;;;14.98;;
58874;SDS011;44652;49.040;12.126;2023-02-14T09:32:00;34.33;;;14.50;;
58874;SDS011;44652;49.040;12.126;2023-02-14T09:34:27;29.98;;;13.85;;
58874;SDS011;44652;49.040;12.126;2023-02-14T09:36:54;28.30;;;14.18;;
58874;SDS011;44652;49.040;12.126;2023-02-14T09:39:39;30.15;;;14.80;;
58874;SDS011;44652;49.040;12.126;2023-02-14T09:44:58;33.20;;;15.18;;
58874;SDS011;44652;49.040;12.126;2023-02-14T09:49:59;30.88;;;15.45;;
58874;SDS011;44652;49.040;12.126;2023-02-14T09:52:27;34.17;;;14.88;;
58874;SDS011;44652;49.040;12.126;2023-02-14T09:54:54;31.67;;;15.35;;
58874;SDS011;44652;49.040;12.126;2023-02-14T10:08:02;27.38;;;13.82;;
58874;SDS011;44652;49.040;12.126;2023-02-14T10:10:41;28.10;;;14.05;;
58874;SDS011;44652;49.040;12.126;2023-02-14T10:15:41;30.17;;;14.60;;
58874;SDS011;44652;49.040;12.126;2023-02-14T10:18:23;28.38;;;13.88;;
58874;SDS011;44652;49.040;12.126;2023-02-14T10:20:54;28.10;;;12.95;;
58874;SDS011;44652;49.040;12.126;2023-02-14T10:23:31;30.02;;;12.23;;
58874;SDS011;44652;49.040;12.126;2023-02-14T10:26:10;27.67;;;12.57;;
58874;SDS011;44652;49.040;12.126;2023-02-14T10:28:43;26.90;;;12.32;;
58874;SDS011;44652;49.040;12.126;2023-02-14T10:31:13;24.10;;;11.70;;
58874;SDS011;44652;49.040;12.126;2023-02-14T10:33:44;28.08;;;12.98;;
58874;SDS011;44652;49.040;12.126;2023-02-14T10:41:49;26.83;;;12.82;;
58874;SDS011;44652;49.040;12.126;2023-02-14T10:44:21;24.30;;;12.55;;
58874;SDS011;44652;49.040;12.126;2023-02-14T10:47:01;26.05;;;12.65;;
58874;SDS011;44652;49.040;12.126;2023-02-14T10:52:17;30.13;;;14.02;;
58874;SDS011;44652;49.040;12.126;2023-02-14T10:54:50;28.25;;;14.55;;
58874;SDS011;44652;49.040;12.126;2023-02-14T10:57:31;30.80;;;15.02;;
58874;SDS011;44652;49.040;12.126;2023-02-14T11:00:06;25.13;;;12.20;;
58874;SDS011;44652;49.040;12.126;2023-02-14T11:02:38;25.92;;;13.27;;
58874;SDS011;44652;49.040;12.126;2023-02-14T11:05:07;25.48;;;13.65;;
58874;SDS011;44652;49.040;12.126;2023-02-14T11:07:33;28.27;;;15.13;;
58874;SDS011;44652;49.040;12.126;2023-02-14T11:10:00;28.27;;;14.48;;
58874;SDS011;44652;49.040;12.126;2023-02-14T11:12:36;25.70;;;13.75;;
58874;SDS011;44652;49.040;12.126;2023-02-14T11:17:40;30.65;;;15.07;;
58874;SDS011;44652;49.040;12.126;2023-02-14T11:20:26;29.53;;;14.00;;
58874;SDS011;44652;49.040;12.126;2023-02-14T11:22:55;28.23;;;14.05;;
58874;SDS011;44652;49.040;12.126;2023-02-14T11:27:49;30.63;;;15.10;;
58874;SDS011;44652;49.040;12.126;2023-02-14T11:30:17;27.40;;;14.48;;
58874;SDS011;44652;49.040;12.126;2023-02-14T11:32:47;28.90;;;14.48;;
58874;SDS011;44652;49.040;12.126;2023-02-14T11:35:19;26.05;;;13.07;;
58874;SDS011;44652;49.040;12.126;2023-02-14T11:37:49;24.85;;;13.57;;
58874;SDS011;44652;49.040;12.126;2023-02-14T11:45:41;21.83;;;11.25;;
58874;SDS011;44652;49.040;12.126;2023-02-14T11:48:21;23.40;;;13.82;;
58874;SDS011;44652;49.040;12.126;2023-02-14T11:51:05;22.83;;;11.95;;
58874;SDS011;44652;49.040;12.126;2023-02-14T11:53:50;26.38;;;13.73;;
58874;SDS011;44652;49.040;12.126;2023-02-14T11:56:19;24.35;;;12.85;;
58874;SDS011;44652;49.040;12.126;2023-02-14T12:01:23;25.95;;;13.50;;
58874;SDS011;44652;49.040;12.126;2023-02-14T12:03:50;24.55;;;13.85;;
58874;SDS011;44652;49.040;12.126;2023-02-14T12:06:24;30.58;;;14.70;;
58874;SDS011;44652;49.040;12.126;2023-02-14T12:09:09;27.75;;;13.32;;
58874;SDS011;44652;49.040;12.126;2023-02-14T12:11:35;31.00;;;14.85;;
58874;SDS011;44652;49.040;12.126;2023-02-14T12:14:04;33.13;;;15.48;;
58874;SDS011;44652;49.040;12.126;2023-02-14T12:16:37;28.58;;;14.07;;
58874;SDS011;44652;49.040;12.126;2023-02-14T12:19:09;25.30;;;13.35;;
58874;SDS011;44652;49.040;12.126;2023-02-14T12:21:40;27.52;;;14.45;;
58874;SDS011;44652;49.040;12.126;2023-02-14T12:26:56;30.75;;;15.90;;
58874;SDS011;44652;49.040;12.126;2023-02-14T12:32:11;28.02;;;15.18;;
58874;SDS011;44652;49.040;12.126;2023-02-14T12:42:37;25.95;;;14.73;;
58874;SDS011;44652;49.040;12.126;2023-02-14T12:50:30;25.10;;;13.00;;
58874;SDS011;44652;49.040;12.126;2023-02-14T12:53:06;25.38;;;13.80;;
58874;SDS011;44652;49.040;12.126;2023-02-14T12:55:40;27.50;;;13.85;;
58874;SDS011;44652;49.040;12.126;2023-02-14T12:58:15;26.80;;;13.18;;
58874;SDS011;44652;49.040;12.126;2023-02-14T13:05:52;27.75;;;14.18;;
58874;SDS011;44652;49.040;12.126;2023-02-14T13:08:36;28.10;;;14.73;;
58874;SDS011;44652;49.040;12.126;2023-02-14T13:13:54;29.88;;;15.25;;
58874;SDS011;44652;49.040;12.126;2023-02-14T13:16:32;27.73;;;14.45;;
58874;SDS011;44652;49.040;12.126;2023-02-14T13:19:02;29.85;;;15.23;;
58874;SDS011;44652;49.040;12.126;2023-02-14T13:21:32;25.63;;;14.10;;
58874;SDS011;44652;49.040;12.126;2023-02-14T13:24:10;28.58;;;14.90;;
58874;SDS011;44652;49.040;12.126;2023-02-14T13:26:38;26.25;;;13.25;;
58874;SDS011;44652;49.040;12.126;2023-02-14T13:29:14;28.48;;;14.35;;
58874;SDS011;44652;49.040;12.126;2023-02-14T13:31:41;27.92;;;14.25;;
58874;SDS011;44652;49.040;12.126;2023-02-14T13:36:35;32.10;;;15.02;;
58874;SDS011;44652;49.040;12.126;2023-02-14T13:39:02;33.22;;;15.80;;
58874;SDS011;44652;49.040;12.126;2023-02-14T13:41:29;29.00;;;15.60;;
58874;SDS011;44652;49.040;12.126;2023-02-14T13:43:59;29.52;;;16.35;;
58874;SDS011;44652;49.040;12.126;2023-02-14T13:51:42;28.65;;;15.25;;
58874;SDS011;44652;49.040;12.126;2023-02-14T13:54:19;30.98;;;15.43;;
58874;SDS011;44652;49.040;12.126;2023-02-14T13:56:46;27.48;;;14.93;;
58874;SDS011;44652;49.040;12.126;2023-02-14T13:59:25;32.10;;;17.20;;
58874;SDS011;44652;49.040;12.126;2023-02-14T14:01:52;32.67;;;15.13;;
58874;SDS011;44652;49.040;12.126;2023-02-14T14:12:35;26.75;;;14.65;;
58874;SDS011;44652;49.040;12.126;2023-02-14T14:17:24;29.67;;;15.63;;
58874;SDS011;44652;49.040;12.126;2023-02-14T14:19:51;28.15;;;15.50;;
58874;SDS011;44652;49.040;12.126;2023-02-14T14:22:18;30.77;;;15.50;;
58874;SDS011;44652;49.040;12.126;2023-02-14T14:29:49;30.95;;;15.63;;
58874;SDS011;44652;49.040;12.126;2023-02-14T14:37:29;33.42;;;18.90;;
58874;SDS011;44652;49.040;12.126;2023-02-14T14:39:57;30.35;;;15.85;;
58874;SDS011;44652;49.040;12.126;2023-02-14T14:42:25;30.83;;;15.25;;
58874;SDS011;44652;49.040;12.126;2023-02-14T14:44:57;29.67;;;14.50;;
58874;SDS011;44652;49.040;12.126;2023-02-14T14:47:26;30.50;;;15.43;;
58874;SDS011;44652;49.040;12.126;2023-02-14T14:49:56;29.40;;;15.18;;
58874;SDS011;44652;49.040;12.126;2023-02-14T14:52:34;34.78;;;18.67;;
58874;SDS011;44652;49.040;12.126;2023-02-14T14:55:01;28.48;;;15.63;;
58874;SDS011;44652;49.040;12.126;2023-02-14T14:57:29;30.15;;;14.88;;
58874;SDS011;44652;49.040;12.126;2023-02-14T15:02:41;33.00;;;16.10;;
58874;SDS011;44652;49.040;12.126;2023-02-14T15:05:12;26.13;;;15.43;;
58874;SDS011;44652;49.040;12.126;2023-02-14T15:07:42;29.70;;;15.75;;
58874;SDS011;44652;49.040;12.126;2023-02-14T15:10:25;34.97;;;17.02;;
58874;SDS011;44652;49.040;12.126;2023-02-14T15:12:53;31.30;;;15.13;;
58874;SDS011;44652;49.040;12.126;2023-02-14T15:15:40;32.92;;;15.52;;
58874;SDS011;44652;49.040;12.126;2023-02-14T15:18:10;30.45;;;16.08;;
58874;SDS011;44652;49.040;12.126;2023-02-14T15:20:38;36.25;;;16.13;;
58874;SDS011;44652;49.040;12.126;2023-02-14T15:23:05;29.73;;;15.68;;
58874;SDS011;44652;49.040;12.126;2023-02-14T15:25:33;31.60;;;16.33;;
58874;SDS011;44652;49.040;12.126;2023-02-14T15:28:00;28.92;;;15.93;;
58874;SDS011;44652;49.040;12.126;2023-02-14T15:30:28;29.00;;;15.25;;
58874;SDS011;44652;49.040;12.126;2023-02-14T15:32:59;31.42;;;16.65;;
58874;SDS011;44652;49.040;12.126;2023-02-14T15:35:28;29.92;;;15.57;;
58874;SDS011;44652;49.040;12.126;2023-02-14T15:37:56;30.05;;;15.15;;
58874;SDS011;44652;49.040;12.126;2023-02-14T15:40:25;32.67;;;16.65;;
58874;SDS011;44652;49.040;12.126;2023-02-14T15:42:53;28.65;;;15.23;;
58874;SDS011;44652;49.040;12.126;2023-02-14T15:47:59;29.85;;;15.07;;
58874;SDS011;44652;49.040;12.126;2023-02-14T15:53:03;27.73;;;14.23;;
58874;SDS011;44652;49.040;12.126;2023-02-14T15:55:30;31.90;;;15.48;;
58874;SDS011;44652;49.040;12.126;2023-02-14T15:58:05;24.77;;;14.70;;
58874;SDS011;44652;49.040;12.126;2023-02-14T16:00:32;29.92;;;15.43;;
58874;SDS011;44652;49.040;12.126;2023-02-14T16:03:00;38.90;;;21.52;;
58874;SDS011;44652;49.040;12.126;2023-02-14T16:05:28;33.40;;;17.77;;
58874;SDS011;44652;49.040;12.126;2023-02-14T16:08:04;30.02;;;15.88;;
58874;SDS011;44652;49.040;12.126;2023-02-14T16:10:32;33.03;;;18.25;;
58874;SDS011;44652;49.040;12.126;2023-02-14T16:15:27;38.63;;;18.65;;
58874;SDS011;44652;49.040;12.126;2023-02-14T16:17:54;38.20;;;18.25;;
58874;SDS011;44652;49.040;12.126;2023-02-14T16:25:44;32.30;;;16.92;;
58874;SDS011;44652;49.040;12.126;2023-02-14T16:28:12;31.02;;;16.65;;
58874;SDS011;44652;49.040;12.126;2023-02-14T16:30:38;36.72;;;18.15;;
58874;SDS011;44652;49.040;12.126;2023-02-14T16:33:08;39.40;;;19.48;;
58874;SDS011;44652;49.040;12.126;2023-02-14T16:35:37;34.63;;;18.58;;
58874;SDS011;44652;49.040;12.126;2023-02-14T16:38:03;34.72;;;16.80;;
58874;SDS011;44652;49.040;12.126;2023-02-14T16:40:30;34.58;;;18.20;;
58874;SDS011;44652;49.040;12.126;2023-02-14T16:42:56;37.10;;;18.30;;
58874;SDS011;44652;49.040;12.126;2023-02-14T16:45:24;30.37;;;16.17;;
58874;SDS011;44652;49.040;12.126;2023-02-14T16:47:50;34.35;;;16.35;;
58874;SDS011;44652;49.040;12.126;2023-02-14T16:50:17;31.73;;;17.10;;
58874;SDS011;44652;49.040;12.126;2023-02-14T16:52:45;36.40;;;17.92;;
58874;SDS011;44652;49.040;12.126;2023-02-14T16:55:14;41.22;;;18.75;;
58874;SDS011;44652;49.040;12.126;2023-02-14T16:57:42;35.08;;;17.92;;
58874;SDS011;44652;49.040;12.126;2023-02-14T17:00:10;40.90;;;19.65;;
58874;SDS011;44652;49.040;12.126;2023-02-14T17:02:37;38.13;;;20.45;;
58874;SDS011;44652;49.040;12.126;2023-02-14T17:05:03;41.20;;;19.65;;
58874;SDS011;44652;49.040;12.126;2023-02-14T17:07:30;38.53;;;19.25;;
58874;SDS011;44652;49.040;12.126;2023-02-14T17:09:59;41.60;;;18.70;;
58874;SDS011;44652;49.040;12.126;2023-02-14T17:12:29;36.10;;;18.23;;
58874;SDS011;44652;49.040;12.126;2023-02-14T17:14:56;37.63;;;17.98;;
58874;SDS011;44652;49.040;12.126;2023-02-14T17:17:24;41.45;;;19.83;;
58874;SDS011;44652;49.040;12.126;2023-02-14T17:19:51;38.53;;;18.50;;
58874;SDS011;44652;49.040;12.126;2023-02-14T17:22:18;41.63;;;19.20;;
58874;SDS011;44652;49.040;12.126;2023-02-14T17:24:45;39.42;;;20.65;;
58874;SDS011;44652;49.040;12.126;2023-02-14T17:27:11;39.28;;;19.15;;
58874;SDS011;44652;49.040;12.126;2023-02-14T17:29:38;37.53;;;19.30;;
58874;SDS011;44652;49.040;12.126;2023-02-14T17:32:04;46.60;;;19.80;;
58874;SDS011;44652;49.040;12.126;2023-02-14T17:34:31;49.70;;;19.80;;
58874;SDS011;44652;49.040;12.126;2023-02-14T17:36:58;38.38;;;18.95;;
58874;SDS011;44652;49.040;12.126;2023-02-14T17:39:25;46.25;;;22.17;;
58874;SDS011;44652;49.040;12.126;2023-02-14T17:41:51;48.08;;;17.98;;
58874;SDS011;44652;49.040;12.126;2023-02-14T17:44:18;36.72;;;18.38;;
58874;SDS011;44652;49.040;12.126;2023-02-14T17:46:44;64.55;;;20.30;;
58874;SDS011;44652;49.040;12.126;2023-02-14T17:49:11;40.65;;;15.40;;
58874;SDS011;44652;49.040;12.126;2023-02-14T17:51:38;30.55;;;15.57;;
58874;SDS011;44652;49.040;12.126;2023-02-14T17:54:04;37.40;;;15.85;;
58874;SDS011;44652;49.040;12.126;2023-02-14T17:56:31;38.28;;;18.33;;
58874;SDS011;44652;49.040;12.126;2023-02-14T17:58:58;35.10;;;16.60;;
58874;SDS011;44652;49.040;12.126;2023-02-14T18:01:25;39.70;;;19.23;;
58874;SDS011;44652;49.040;12.126;2023-02-14T18:03:53;43.75;;;19.58;;
58874;SDS011;44652;49.040;12.126;2023-02-14T18:06:19;40.80;;;18.58;;
58874;SDS011;44652;49.040;12.126;2023-02-14T18:08:47;39.78;;;16.92;;
58874;SDS011;44652;49.040;12.126;2023-02-14T18:11:23;40.80;;;16.88;;
58874;SDS011;44652;49.040;12.126;2023-02-14T18:13:54;39.33;;;17.33;;
58874;SDS011;44652;49.040;12.126;2023-02-14T18:16:21;78.65;;;18.65;;
58874;SDS011;44652;49.040;12.126;2023-02-14T18:18:48;43.95;;;19.20;;
58874;SDS011;44652;49.040;12.126;2023-02-14T18:21:15;63.25;;;21.95;;
58874;SDS011;44652;49.040;12.126;2023-02-14T18:23:42;47.63;;;20.10;;
58874;SDS011;44652;49.040;12.126;2023-02-14T18:26:09;45.00;;;20.70;;
58874;SDS011;44652;49.040;12.126;2023-02-14T18:28:36;40.28;;;17.90;;
58874;SDS011;44652;49.040;12.126;2023-02-14T18:31:03;51.03;;;19.85;;
58874;SDS011;44652;49.040;12.126;2023-02-14T18:33:30;101.33;;;20.53;;
58874;SDS011;44652;49.040;12.126;2023-02-14T18:35:59;43.67;;;18.70;;
58874;SDS011;44652;49.040;12.126;2023-02-14T18:38:26;65.20;;;20.42;;
58874;SDS011;44652;49.040;12.126;2023-02-14T18:40:53;50.25;;;20.40;;
58874;SDS011;44652;49.040;12.126;2023-02-14T18:43:19;97.15;;;21.95;;
58874;SDS011;44652;49.040;12.126;2023-02-14T18:45:46;51.63;;;20.65;;
58874;SDS011;44652;49.040;12.126;2023-02-14T18:48:12;61.10;;;18.15;;
58874;SDS011;44652;49.040;12.126;2023-02-14T18:50:39;37.33;;;18.38;;
58874;SDS011;44652;49.040;12.126;2023-02-14T18:53:05;63.92;;;18.48;;
58874;SDS011;44652;49.040;12.126;2023-02-14T18:55:32;67.22;;;19.80;;
58874;SDS011;44652;49.040;12.126;2023-02-14T18:57:58;79.57;;;17.25;;
58874;SDS011;44652;49.040;12.126;2023-02-14T19:00:25;57.60;;;19.67;;
58874;SDS011;44652;49.040;12.126;2023-02-14T19:02:52;62.33;;;19.50;;
58874;SDS011;44652;49.040;12.126;2023-02-14T19:05:19;50.63;;;19.67;;
58874;SDS011;44652;49.040;12.126;2023-02-14T19:07:45;42.50;;;17.35;;
58874;SDS011;44652;49.040;12.126;2023-02-14T19:10:12;34.60;;;16.48;;
58874;SDS011;44652;49.040;12.126;2023-02-14T19:12:38;39.63;;;17.52;;
58874;SDS011;44652;49.040;12.126;2023-02-14T19:15:05;42.78;;;16.95;;
58874;SDS011;44652;49.040;12.126;2023-02-14T19:17:32;45.72;;;17.73;;
58874;SDS011;44652;49.040;12.126;2023-02-14T19:19:59;45.90;;;18.23;;
58874;SDS011;44652;49.040;12.126;2023-02-14T19:22:25;47.85;;;16.17;;
58874;SDS011;44652;49.040;12.126;2023-02-14T19:24:52;30.05;;;15.52;;
58874;SDS011;44652;49.040;12.126;2023-02-14T19:27:19;31.90;;;15.43;;
58874;SDS011;44652;49.040;12.126;2023-02-14T19:29:46;38.83;;;17.13;;
58874;SDS011;44652;49.040;12.126;2023-02-14T19:32:13;47.65;;;16.52;;
58874;SDS011;44652;49.040;12.126;2023-02-14T19:34:40;36.13;;;16.45;;
58874;SDS011;44652;49.040;12.126;2023-02-14T19:37:06;42.72;;;18.15;;
58874;SDS011;44652;49.040;12.126;2023-02-14T19:39:33;40.25;;;17.77;;
58874;SDS011;44652;49.040;12.126;2023-02-14T19:41:59;38.33;;;17.48;;
58874;SDS011;44652;49.040;12.126;2023-02-14T19:44:26;38.28;;;17.08;;
58874;SDS011;44652;49.040;12.126;2023-02-14T19:46:54;44.05;;;20.08;;
58874;SDS011;44652;49.040;12.126;2023-02-14T19:49:22;65.55;;;21.42;;
58874;SDS011;44652;49.040;12.126;2023-02-14T19:51:48;48.50;;;21.35;;
58874;SDS011;44652;49.040;12.126;2023-02-14T19:54:16;46.42;;;19.65;;
58874;SDS011;44652;49.040;12.126;2023-02-14T19:56:44;54.10;;;18.63;;
58874;SDS011;44652;49.040;12.126;2023-02-14T19:59:11;69.80;;;23.48;;
58874;SDS011;44652;49.040;12.126;2023-02-14T20:01:43;89.07;;;19.85;;
58874;SDS011;44652;49.040;12.126;2023-02-14T20:04:16;60.30;;;19.00;;
58874;SDS011;44652;49.040;12.126;2023-02-14T20:06:43;86.05;;;18.27;;
58874;SDS011;44652;49.040;12.126;2023-02-14T20:09:10;57.75;;;17.70;;
58874;SDS011;44652;49.040;12.126;2023-02-14T20:14:12;63.05;;;18.10;;
58874;SDS011;44652;49.040;12.126;2023-02-14T20:16:39;84.70;;;17.92;;
58874;SDS011;44652;49.040;12.126;2023-02-14T20:19:07;41.63;;;17.63;;
58874;SDS011;44652;49.040;12.126;2023-02-14T20:21:34;58.90;;;17.53;;
58874;SDS011;44652;49.040;12.126;2023-02-14T20:24:00;44.17;;;15.63;;
58874;SDS011;44652;49.040;12.126;2023-02-14T20:26:28;84.22;;;17.05;;
58874;SDS011;44652;49.040;12.126;2023-02-14T20:28:57;65.07;;;16.92;;
58874;SDS011;44652;49.040;12.126;2023-02-14T20:33:50;95.90;;;19.17;;
58874;SDS011;44652;49.040;12.126;2023-02-14T20:36:18;68.03;;;16.00;;
58874;SDS011;44652;49.040;12.126;2023-02-14T20:38:45;41.90;;;17.10;;
58874;SDS011;44652;49.040;12.126;2023-02-14T20:41:12;39.35;;;16.08;;
58874;SDS011;44652;49.040;12.126;2023-02-14T20:43:41;35.50;;;14.88;;
58874;SDS011;44652;49.040;12.126;2023-02-14T20:46:08;43.28;;;17.20;;
58874;SDS011;44652;49.040;12.126;2023-02-14T20:48:34;44.72;;;17.83;;
58874;SDS011;44652;49.040;12.126;2023-02-14T20:51:11;67.43;;;17.60;;
58874;SDS011;44652;49.040;12.126;2023-02-14T20:53:38;37.45;;;16.95;;
58874;SDS011;44652;49.040;12.126;2023-02-14T20:56:05;77.18;;;18.85;;
58874;SDS011;44652;49.040;12.126;2023-02-14T20:58:32;50.42;;;16.83;;
58874;SDS011;44652;49.040;12.126;2023-02-14T21:03:32;38.50;;;14.65;;
58874;SDS011;44652;49.040;12.126;2023-02-14T21:08:28;42.80;;;14.63;;
58874;SDS011;44652;49.040;12.126;2023-02-14T21:10:54;57.83;;;16.48;;
58874;SDS011;44652;49.040;12.126;2023-02-14T21:13:21;59.75;;;16.83;;
58874;SDS011;44652;49.040;12.126;2023-02-14T21:15:47;56.05;;;17.00;;
58874;SDS011;44652;49.040;12.126;2023-02-14T21:18:14;52.50;;;17.42;;
58874;SDS011;44652;49.040;12.126;2023-02-14T21:20:41;53.78;;;17.23;;
58874;SDS011;44652;49.040;12.126;2023-02-14T21:23:07;61.33;;;16.00;;
58874;SDS011;44652;49.040;12.126;2023-02-14T21:25:35;69.20;;;16.67;;
58874;SDS011;44652;49.040;12.126;2023-02-14T21:28:02;58.50;;;15.70;;
58874;SDS011;44652;49.040;12.126;2023-02-14T21:30:32;39.38;;;15.70;;
58874;SDS011;44652;49.040;12.126;2023-02-14T21:32:58;53.95;;;17.95;;
58874;SDS011;44652;49.040;12.126;2023-02-14T21:35:25;74.05;;;17.45;;
58874;SDS011;44652;49.040;12.126;2023-02-14T21:37:52;66.70;;;16.85;;
58874;SDS011;44652;49.040;12.126;2023-02-14T21:40:18;76.68;;;17.33;;
58874;SDS011;44652;49.040;12.126;2023-02-14T21:42:45;52.97;;;17.08;;
58874;SDS011;44652;49.040;12.126;2023-02-14T21:45:12;88.85;;;20.00;;
58874;SDS011;44652;49.040;12.126;2023-02-14T21:47:58;41.05;;;18.13;;
58874;SDS011;44652;49.040;12.126;2023-02-14T21:50:43;107.68;;;19.95;;
58874;SDS011;44652;49.040;12.126;2023-02-14T21:53:09;44.22;;;15.95;;
58874;SDS011;44652;49.040;12.126;2023-02-14T21:55:36;34.20;;;14.88;;
